Time;durP1;ratioP1;P1;durP2;ratioP2;P2;SDS_P1;SDS_P2;PMS_P1;PMS_P2;Temp;Humidity;BMP_temperature;BMP_pressure;BME280_temperature;BME280_humidity;BME280_pressure;Samples;Min_cycle;Max_cycle;Signal;HPM_P1;HPM_P2
2023/07/23 00:00:23;;;;;;;10.27;6.38;;;17.70;99.90;;;;;;6214041;23;20005;-88
2023/07/23 00:02:48;;;;;;;10.40;6.35;;;17.70;99.90;;;;;;6214661;23;20001;-89
2023/07/23 00:05:14;;;;;;;9.45;5.45;;;17.70;99.90;;;;;;6214314;23;19996;-88
2023/07/23 00:07:39;;;;;;;9.73;6.03;;;17.60;99.90;;;;;;6214473;23;19996;-89
2023/07/23 00:10:05;;;;;;;6.38;5.35;;;17.70;99.90;;;;;;6214807;23;20071;-89
2023/07/23 00:12:31;;;;;;;8.38;5.97;;;17.70;99.90;;;;;;6214737;23;19997;-88
2023/07/23 00:14:57;;;;;;;8.07;5.90;;;17.70;99.90;;;;;;6213415;23;20048;-86
2023/07/23 00:17:22;;;;;;;6.90;6.13;;;17.70;99.90;;;;;;6212895;23;20075;-88
2023/07/23 00:19:48;;;;;;;9.80;6.93;;;17.70;99.90;;;;;;6213343;23;20445;-88
2023/07/23 00:22:14;;;;;;;10.10;7.47;;;17.70;99.90;;;;;;6214070;23;19997;-89
2023/07/23 00:24:40;;;;;;;9.98;7.55;;;17.70;99.90;;;;;;6214576;23;20001;-89
2023/07/23 00:27:05;;;;;;;9.20;7.03;;;17.70;99.90;;;;;;6213702;23;20074;-89
2023/07/23 00:29:31;;;;;;;11.90;7.28;;;17.60;99.90;;;;;;6214263;23;19997;-89
2023/07/23 00:31:56;;;;;;;8.68;7.57;;;17.60;99.90;;;;;;6214508;23;20011;-88
2023/07/23 00:34:23;;;;;;;11.13;6.97;;;17.50;99.90;;;;;;6214254;23;20004;-88
2023/07/23 00:36:48;;;;;;;11.30;8.43;;;17.50;99.90;;;;;;6214260;23;20000;-89
2023/07/23 00:39:14;;;;;;;9.45;7.80;;;17.50;99.90;;;;;;6214124;23;20005;-90
2023/07/23 00:41:39;;;;;;;10.07;8.05;;;17.40;99.90;;;;;;6214105;23;20008;-88
2023/07/23 00:44:05;;;;;;;9.18;7.63;;;17.40;99.90;;;;;;6213783;23;20017;-88
2023/07/23 00:46:31;;;;;;;11.55;8.73;;;17.40;99.90;;;;;;6188370;23;20005;-89
2023/07/23 00:49:01;;;;;;;11.00;9.10;;;17.40;99.90;;;;;;6213493;23;20001;-87
2023/07/23 00:51:28;;;;;;;11.82;8.50;;;17.40;99.90;;;;;;6214005;23;19997;-90
2023/07/23 00:53:54;;;;;;;13.75;9.68;;;17.30;99.90;;;;;;6213813;23;20022;-89
2023/07/23 00:56:20;;;;;;;10.82;9.73;;;17.40;99.90;;;;;;6214333;23;20075;-90
2023/07/23 00:58:47;;;;;;;9.55;8.65;;;17.40;99.90;;;;;;6228450;23;20076;-90
2023/07/23 01:01:13;;;;;;;14.75;10.07;;;17.30;99.90;;;;;;6221800;23;19996;-89
2023/07/23 01:03:38;;;;;;;15.60;11.75;;;17.30;99.90;;;;;;6215605;23;20005;-89
2023/07/23 01:06:05;;;;;;;10.07;8.57;;;17.30;99.90;;;;;;6214086;23;20418;-89
2023/07/23 01:08:34;;;;;;;10.93;9.35;;;17.30;99.90;;;;;;6214180;23;19999;-89
2023/07/23 01:11:01;;;;;;;12.55;8.93;;;17.30;99.90;;;;;;6214179;23;20008;-88
2023/07/23 01:13:28;;;;;;;11.18;9.65;;;17.30;99.90;;;;;;6213247;23;20115;-89
2023/07/23 01:15:54;;;;;;;12.75;9.88;;;17.30;99.90;;;;;;6214586;23;20005;-88
2023/07/23 01:18:20;;;;;;;9.73;8.55;;;17.30;99.90;;;;;;6214055;23;20111;-90
2023/07/23 01:20:45;;;;;;;12.23;9.05;;;17.30;99.90;;;;;;6215240;23;20004;-89
2023/07/23 01:23:11;;;;;;;9.98;7.95;;;17.30;99.90;;;;;;6227881;23;20007;-89
2023/07/23 01:25:37;;;;;;;8.93;8.02;;;17.30;99.90;;;;;;6230474;23;20011;-91
2023/07/23 01:28:02;;;;;;;11.18;9.23;;;17.30;99.90;;;;;;6220414;23;20032;-88
2023/07/23 01:30:28;;;;;;;9.40;8.40;;;17.30;99.90;;;;;;6205858;23;20009;-89
2023/07/23 01:32:54;;;;;;;9.18;8.00;;;17.30;99.90;;;;;;6227009;23;20366;-89
2023/07/23 01:35:20;;;;;;;8.70;7.25;;;17.30;99.90;;;;;;6222227;23;20009;-88
2023/07/23 01:37:47;;;;;;;9.82;8.10;;;17.30;99.90;;;;;;6213792;23;20054;-88
2023/07/23 01:40:15;;;;;;;8.68;7.75;;;17.30;99.90;;;;;;6214305;23;20011;-88
2023/07/23 01:42:42;;;;;;;10.23;8.18;;;17.30;99.90;;;;;;6213499;23;20075;-87
2023/07/23 01:45:08;;;;;;;7.50;6.65;;;17.30;99.90;;;;;;6213309;23;20004;-88
2023/07/23 01:47:33;;;;;;;8.15;7.05;;;17.30;99.90;;;;;;6214127;23;19993;-89
2023/07/23 01:49:59;;;;;;;13.30;8.98;;;17.30;99.90;;;;;;6213562;23;20067;-88
2023/07/23 01:52:26;;;;;;;13.35;8.15;;;17.20;99.90;;;;;;6213618;23;20087;-88
2023/07/23 01:54:51;;;;;;;9.95;7.22;;;17.20;99.90;;;;;;6213356;23;20000;-89
2023/07/23 01:57:17;;;;;;;8.77;7.20;;;17.20;99.90;;;;;;6212478;23;20035;-88
2023/07/23 01:59:42;;;;;;;8.98;7.63;;;17.20;99.90;;;;;;6213243;23;20024;-88
2023/07/23 02:02:10;;;;;;;11.48;9.10;;;17.20;99.90;;;;;;6213200;23;20047;-89
2023/07/23 02:04:36;;;;;;;9.60;8.68;;;17.10;99.90;;;;;;6213360;23;20438;-87
2023/07/23 02:07:02;;;;;;;12.32;8.13;;;17.20;99.90;;;;;;6213259;23;20062;-88
2023/07/23 02:09:28;;;;;;;11.85;8.35;;;17.20;99.90;;;;;;6213615;23;20431;-88
2023/07/23 02:11:53;;;;;;;10.02;8.35;;;17.20;99.90;;;;;;6212958;23;20003;-89
2023/07/23 02:14:19;;;;;;;13.07;8.50;;;17.20;99.90;;;;;;6186219;23;20001;-87
2023/07/23 02:16:45;;;;;;;10.38;8.35;;;17.20;99.90;;;;;;6213606;23;20008;-89
2023/07/23 02:19:11;;;;;;;13.98;8.20;;;17.20;99.90;;;;;;6213494;23;20501;-89
2023/07/23 02:21:38;;;;;;;9.13;7.43;;;17.10;99.90;;;;;;6187073;23;20004;-90
2023/07/23 02:24:04;;;;;;;9.05;8.13;;;17.20;99.90;;;;;;6213808;23;20330;-90
2023/07/23 02:26:30;;;;;;;9.00;6.93;;;17.10;99.90;;;;;;6213220;23;20008;-89
2023/07/23 02:28:56;;;;;;;9.52;7.53;;;17.10;99.90;;;;;;6213246;23;20009;-89
2023/07/23 02:31:21;;;;;;;9.00;8.07;;;17.10;99.90;;;;;;6213121;23;20012;-89
2023/07/23 02:33:47;;;;;;;8.85;7.85;;;17.10;99.90;;;;;;6213061;23;20329;-90
2023/07/23 02:36:12;;;;;;;12.75;8.20;;;17.10;99.90;;;;;;6212932;23;20004;-88
2023/07/23 02:38:38;;;;;;;9.88;8.20;;;17.10;99.90;;;;;;6213583;23;20004;-89
2023/07/23 02:41:03;;;;;;;10.30;7.47;;;17.00;99.90;;;;;;6213044;23;20009;-88
2023/07/23 02:43:29;;;;;;;10.20;7.57;;;17.10;99.90;;;;;;6212757;23;20000;-87
2023/07/23 02:45:54;;;;;;;10.27;7.57;;;17.00;99.90;;;;;;6185850;23;20015;-88
2023/07/23 02:48:20;;;;;;;9.65;7.35;;;17.10;99.90;;;;;;6212879;23;20011;-89
2023/07/23 02:50:45;;;;;;;7.78;6.97;;;17.00;99.90;;;;;;6214520;23;20321;-88
2023/07/23 02:53:11;;;;;;;15.60;8.07;;;17.00;99.90;;;;;;6214370;23;20017;-87
2023/07/23 02:55:37;;;;;;;9.25;7.55;;;17.10;99.90;;;;;;6214209;23;20083;-88
2023/07/23 02:58:03;;;;;;;8.60;7.70;;;17.10;99.90;;;;;;6214406;23;20011;-87
2023/07/23 03:00:32;;;;;;;9.90;8.15;;;17.10;99.90;;;;;;6215042;23;20488;-87
2023/07/23 03:02:58;;;;;;;9.27;7.43;;;17.10;99.90;;;;;;6214175;23;20060;-87
2023/07/23 03:05:24;;;;;;;10.38;7.85;;;17.10;99.90;;;;;;6214355;23;20362;-88
2023/07/23 03:07:53;;;;;;;8.00;6.95;;;17.10;99.90;;;;;;6188135;23;20004;-88
2023/07/23 03:10:18;;;;;;;9.85;7.63;;;17.10;99.90;;;;;;6213466;23;19996;-88
2023/07/23 03:12:44;;;;;;;7.32;6.63;;;17.10;99.90;;;;;;6213988;23;20020;-88
2023/07/23 03:15:10;;;;;;;10.05;7.03;;;17.10;99.90;;;;;;6213471;23;20004;-87
2023/07/23 03:17:35;;;;;;;10.50;6.30;;;17.10;99.90;;;;;;6214085;23;20084;-87
2023/07/23 03:20:01;;;;;;;8.75;7.15;;;17.10;99.90;;;;;;6214358;23;20051;-87
2023/07/23 03:22:26;;;;;;;10.18;7.20;;;17.20;99.90;;;;;;6214809;23;19997;-88
2023/07/23 03:24:52;;;;;;;12.13;7.78;;;17.10;99.90;;;;;;6214270;23;20004;-89
2023/07/23 03:27:18;;;;;;;10.07;6.57;;;17.20;99.90;;;;;;6214375;23;19997;-88
2023/07/23 03:29:43;;;;;;;7.03;6.32;;;17.20;99.90;;;;;;6214784;23;20001;-87
2023/07/23 03:32:09;;;;;;;6.78;5.90;;;17.20;99.90;;;;;;6187788;23;20005;-88
2023/07/23 03:34:34;;;;;;;8.27;6.20;;;17.20;99.90;;;;;;6214640;23;19996;-88
2023/07/23 03:37:00;;;;;;;10.80;7.35;;;17.20;99.90;;;;;;6215548;23;20529;-88
2023/07/23 03:39:25;;;;;;;8.68;6.47;;;17.20;99.90;;;;;;6219906;23;20058;-88
2023/07/23 03:41:51;;;;;;;12.57;6.00;;;17.20;99.90;;;;;;6223698;23;20052;-88
2023/07/23 03:44:17;;;;;;;6.45;5.72;;;17.20;99.90;;;;;;6217245;23;20007;-88
2023/07/23 03:47:06;;;;;;;9.15;6.07;;;17.20;99.90;;;;;;6214739;23;20430;-88
2023/07/23 03:49:31;;;;;;;8.00;5.50;;;17.20;99.90;;;;;;6188346;23;20001;-88
2023/07/23 03:51:58;;;;;;;7.18;5.88;;;17.20;99.90;;;;;;6213914;23;20210;-87
2023/07/23 03:54:24;;;;;;;8.15;6.03;;;17.20;99.90;;;;;;6213937;23;20007;-88
2023/07/23 03:56:49;;;;;;;6.43;5.75;;;17.30;99.90;;;;;;6215139;23;20004;-88
2023/07/23 03:59:15;;;;;;;7.38;6.03;;;17.30;99.90;;;;;;6214878;23;20000;-88
2023/07/23 04:01:40;;;;;;;7.53;6.72;;;17.30;99.90;;;;;;6217430;23;20031;-89
2023/07/23 04:04:06;;;;;;;8.20;6.68;;;17.30;99.90;;;;;;6226021;23;20011;-87
2023/07/23 04:06:32;;;;;;;12.43;6.93;;;17.30;99.90;;;;;;6224496;23;20009;-87
2023/07/23 04:08:57;;;;;;;9.82;8.10;;;17.30;99.90;;;;;;6224125;23;20070;-88
2023/07/23 04:11:23;;;;;;;9.80;7.38;;;17.30;99.90;;;;;;6215380;23;20048;-88
2023/07/23 04:13:49;;;;;;;8.60;7.28;;;17.40;99.90;;;;;;6214347;23;20007;-89
2023/07/23 04:16:15;;;;;;;9.35;6.85;;;17.40;99.90;;;;;;6213739;23;20001;-87
2023/07/23 04:18:49;;;;;;;7.25;6.38;;;17.40;99.90;;;;;;6214911;23;20082;-89
2023/07/23 04:21:18;;;;;;;7.63;6.82;;;17.50;99.90;;;;;;6213897;23;20004;-88
2023/07/23 04:23:48;;;;;;;8.48;6.32;;;17.40;99.90;;;;;;6213731;23;20008;-85
2023/07/23 04:26:14;;;;;;;7.07;6.35;;;17.40;99.90;;;;;;6213043;23;20441;-89
2023/07/23 04:28:40;;;;;;;7.32;6.60;;;17.50;99.90;;;;;;6213849;23;20005;-88
2023/07/23 04:31:05;;;;;;;7.80;7.00;;;17.50;99.90;;;;;;6212952;23;20445;-84
2023/07/23 04:33:31;;;;;;;7.93;6.18;;;17.50;99.90;;;;;;6213374;23;20007;-84
2023/07/23 04:35:56;;;;;;;9.30;7.38;;;17.50;99.90;;;;;;6212757;23;20107;-87
2023/07/23 04:38:22;;;;;;;7.38;6.45;;;17.50;99.90;;;;;;6213670;23;20012;-87
2023/07/23 04:40:48;;;;;;;8.07;5.93;;;17.50;99.90;;;;;;6213432;23;20005;-89
2023/07/23 04:43:14;;;;;;;9.18;5.55;;;17.50;99.90;;;;;;6213760;23;20070;-88
2023/07/23 04:45:40;;;;;;;7.00;6.30;;;17.60;99.90;;;;;;6213251;23;20430;-85
2023/07/23 04:48:05;;;;;;;8.70;5.88;;;17.60;99.90;;;;;;6213268;23;20325;-87
2023/07/23 04:50:31;;;;;;;8.50;5.97;;;17.60;99.90;;;;;;6185742;23;20109;-85
2023/07/23 04:52:56;;;;;;;8.68;6.35;;;17.70;99.90;;;;;;6212800;23;20086;-86
2023/07/23 04:55:22;;;;;;;8.05;6.85;;;17.60;99.90;;;;;;6212835;23;20738;-85
2023/07/23 04:57:47;;;;;;;6.35;5.70;;;17.70;99.90;;;;;;6186984;23;20063;-87
2023/07/23 05:00:13;;;;;;;8.23;5.72;;;17.70;99.90;;;;;;6212877;23;20008;-88
2023/07/23 05:02:39;;;;;;;8.45;5.70;;;17.70;99.90;;;;;;6213029;23;20075;-87
2023/07/23 05:05:05;;;;;;;7.70;5.95;;;17.80;99.90;;;;;;6212459;23;19997;-87
2023/07/23 05:07:31;;;;;;;8.35;5.28;;;17.80;99.90;;;;;;6213506;23;20115;-85
2023/07/23 05:09:56;;;;;;;6.20;5.60;;;17.80;99.90;;;;;;6186310;23;20001;-86
2023/07/23 05:12:22;;;;;;;6.43;5.63;;;17.80;99.90;;;;;;6212567;23;20015;-88
2023/07/23 05:14:48;;;;;;;7.53;6.22;;;17.90;99.90;;;;;;6212797;23;20008;-86
2023/07/23 05:17:14;;;;;;;6.13;5.45;;;17.90;99.90;;;;;;6212744;23;20005;-88
2023/07/23 05:19:40;;;;;;;7.15;5.70;;;17.90;99.90;;;;;;6186048;23;20023;-88
2023/07/23 05:22:06;;;;;;;6.28;5.68;;;17.90;99.90;;;;;;6186099;23;20009;-90
2023/07/23 05:24:31;;;;;;;9.23;6.15;;;17.90;99.90;;;;;;6212888;23;20004;-86
2023/07/23 05:26:58;;;;;;;6.63;5.13;;;18.00;99.90;;;;;;6213763;23;20175;-90
2023/07/23 05:29:23;;;;;;;7.07;5.30;;;18.00;99.90;;;;;;6213461;23;20510;-89
2023/07/23 05:31:49;;;;;;;7.22;5.28;;;18.00;99.90;;;;;;6213970;23;20000;-90
2023/07/23 05:34:16;;;;;;;10.40;5.55;;;18.00;99.90;;;;;;6213796;23;20024;-88
2023/07/23 05:36:41;;;;;;;6.45;5.10;;;18.00;99.90;;;;;;6214062;23;20346;-89
2023/07/23 05:39:08;;;;;;;7.47;5.00;;;18.00;99.90;;;;;;6214499;23;20000;-89
2023/07/23 05:41:34;;;;;;;7.78;5.20;;;18.00;99.90;;;;;;6215017;23;20426;-89
2023/07/23 05:44:00;;;;;;;6.47;4.38;;;18.10;99.90;;;;;;6214447;23;20000;-90
2023/07/23 05:46:26;;;;;;;7.97;4.30;;;18.10;99.90;;;;;;6213895;23;20009;-90
2023/07/23 05:48:51;;;;;;;4.85;4.22;;;18.10;99.90;;;;;;6214169;23;20008;-89
2023/07/23 05:51:17;;;;;;;8.02;4.68;;;18.20;99.90;;;;;;6214668;23;20441;-89
2023/07/23 05:53:42;;;;;;;6.53;4.40;;;18.20;99.90;;;;;;6214945;23;20424;-89
2023/07/23 05:56:08;;;;;;;5.75;4.63;;;18.20;99.90;;;;;;6214170;23;20036;-88
2023/07/23 05:58:33;;;;;;;7.28;5.47;;;18.20;99.90;;;;;;6215145;23;20322;-89
2023/07/23 06:00:59;;;;;;;5.90;5.00;;;18.20;99.90;;;;;;6214891;23;20004;-89
2023/07/23 06:03:24;;;;;;;5.45;4.53;;;18.20;99.90;;;;;;6213878;23;20008;-89
2023/07/23 06:05:50;;;;;;;6.18;4.60;;;18.20;99.90;;;;;;6213941;23;20063;-90
2023/07/23 06:08:16;;;;;;;10.63;4.72;;;18.20;99.90;;;;;;6214578;23;20060;-91
2023/07/23 06:10:41;;;;;;;6.53;4.63;;;18.20;99.90;;;;;;6219157;23;19996;-88
2023/07/23 06:13:07;;;;;;;8.65;5.13;;;18.20;99.90;;;;;;6232781;23;19996;-91
2023/07/23 06:15:33;;;;;;;9.77;5.60;;;18.20;99.90;;;;;;6219553;23;20406;-90
2023/07/23 06:17:58;;;;;;;10.15;4.95;;;18.20;99.90;;;;;;6214878;23;20008;-90
2023/07/23 06:20:25;;;;;;;4.93;4.40;;;18.20;99.90;;;;;;6215292;23;20024;-89
2023/07/23 06:22:51;;;;;;;5.28;4.22;;;18.20;99.90;;;;;;6213966;23;19997;-90
2023/07/23 06:25:16;;;;;;;5.15;4.65;;;18.30;99.90;;;;;;6215577;23;20005;-89
2023/07/23 06:27:42;;;;;;;7.22;4.93;;;18.20;99.90;;;;;;6216827;23;20084;-91
2023/07/23 06:30:08;;;;;;;7.85;4.20;;;18.30;99.90;;;;;;6216737;23;20004;-90
2023/07/23 06:32:33;;;;;;;8.80;4.97;;;18.20;99.90;;;;;;6216444;23;20003;-88
2023/07/23 06:34:59;;;;;;;9.10;4.75;;;18.30;99.90;;;;;;6216769;23;20001;-88
2023/07/23 06:37:25;;;;;;;4.70;4.25;;;18.20;99.90;;;;;;6236519;23;20007;-89
2023/07/23 06:39:50;;;;;;;8.57;5.10;;;18.30;99.90;;;;;;6226074;23;20322;-90
2023/07/23 06:42:16;;;;;;;4.75;4.10;;;18.30;99.90;;;;;;6227083;23;19997;-90
2023/07/23 06:44:42;;;;;;;7.00;5.13;;;18.30;99.90;;;;;;6236566;23;20005;-88
2023/07/23 06:47:07;;;;;;;8.95;4.95;;;18.30;99.90;;;;;;6219215;23;20008;-89
2023/07/23 06:49:33;;;;;;;4.97;4.53;;;18.30;99.90;;;;;;6216867;23;20005;-89
2023/07/23 06:51:59;;;;;;;12.85;5.60;;;18.30;99.90;;;;;;6216807;23;20008;-90
2023/07/23 06:54:24;;;;;;;5.38;4.47;;;18.30;99.90;;;;;;6217009;23;20004;-90
2023/07/23 06:56:51;;;;;;;6.03;5.43;;;18.30;99.90;;;;;;6216295;23;20036;-89
2023/07/23 06:59:17;;;;;;;8.77;5.00;;;18.30;99.90;;;;;;6216241;23;20075;-89
2023/07/23 07:01:43;;;;;;;7.55;5.03;;;18.30;99.90;;;;;;6216530;23;20040;-90
2023/07/23 07:04:08;;;;;;;5.53;4.30;;;18.30;99.90;;;;;;6216797;23;20362;-90
2023/07/23 07:06:34;;;;;;;7.35;5.22;;;18.30;99.90;;;;;;6216502;23;20362;-90
2023/07/23 07:08:59;;;;;;;7.85;5.07;;;18.30;99.90;;;;;;6216130;23;20422;-90
2023/07/23 07:11:25;;;;;;;7.00;4.85;;;18.30;99.90;;;;;;6188886;23;20051;-89
2023/07/23 07:13:51;;;;;;;5.43;4.88;;;18.40;99.90;;;;;;6215131;23;20007;-90
2023/07/23 07:16:16;;;;;;;6.28;4.68;;;18.40;99.90;;;;;;6215375;23;20076;-89
2023/07/23 07:18:42;;;;;;;5.50;4.97;;;18.40;99.90;;;;;;6216662;23;20009;-89
2023/07/23 07:21:08;;;;;;;6.90;5.13;;;18.40;99.90;;;;;;6215355;23;20028;-90
2023/07/23 07:23:34;;;;;;;5.75;4.45;;;18.40;99.90;;;;;;6215774;23;20005;-90
2023/07/23 07:26:03;;;;;;;7.35;4.25;;;18.40;99.90;;;;;;6215713;23;20070;-90
2023/07/23 07:28:32;;;;;;;6.43;4.55;;;18.40;99.90;;;;;;6215429;23;20074;-89
2023/07/23 07:30:59;;;;;;;8.57;4.80;;;18.30;99.90;;;;;;6214935;23;20020;-90
2023/07/23 07:33:25;;;;;;;6.45;5.15;;;18.20;99.90;;;;;;6215622;23;20000;-89
2023/07/23 07:35:55;;;;;;;9.75;5.72;;;18.20;99.90;;;;;;6215408;23;20418;-90
2023/07/23 07:38:21;;;;;;;8.07;5.40;;;18.20;99.90;;;;;;6215873;23;20001;-90
2023/07/23 07:40:50;;;;;;;6.43;5.57;;;18.20;99.90;;;;;;6216156;23;20004;-91
2023/07/23 07:43:16;;;;;;;5.15;4.50;;;18.20;99.90;;;;;;6215918;23;20008;-91
2023/07/23 07:45:45;;;;;;;7.25;5.30;;;18.10;99.90;;;;;;6215372;23;20377;-90
2023/07/23 07:48:11;;;;;;;6.45;5.70;;;18.10;99.90;;;;;;6215780;23;20001;-89
2023/07/23 07:50:36;;;;;;;7.78;5.40;;;18.10;99.90;;;;;;6215391;23;20011;-89
2023/07/23 07:53:02;;;;;;;9.20;4.40;;;18.10;99.90;;;;;;6198308;23;20096;-92
2023/07/23 07:55:28;;;;;;;6.10;4.70;;;18.10;99.90;;;;;;6214841;23;20000;-89
2023/07/23 07:57:53;;;;;;;8.85;5.95;;;18.10;99.90;;;;;;6213809;23;20004;-92
2023/07/23 08:00:19;;;;;;;6.93;5.68;;;18.10;99.90;;;;;;6214894;23;20067;-91
2023/07/23 08:02:45;;;;;;;6.57;5.90;;;18.00;99.90;;;;;;6214317;23;20308;-90
2023/07/23 08:05:11;;;;;;;7.47;4.90;;;18.00;99.90;;;;;;6215023;23;20000;-90
2023/07/23 08:07:37;;;;;;;7.80;5.97;;;18.00;99.90;;;;;;6213525;23;20377;-88
2023/07/23 08:10:03;;;;;;;6.55;4.75;;;18.00;99.90;;;;;;6215053;23;20000;-89
2023/07/23 08:12:29;;;;;;;9.18;5.30;;;18.00;99.90;;;;;;6213583;23;20010;-90
2023/07/23 08:14:55;;;;;;;8.10;5.60;;;17.90;99.90;;;;;;6214654;23;20302;-89
2023/07/23 08:17:21;;;;;;;6.60;5.13;;;17.90;99.90;;;;;;6214794;23;20004;-90
2023/07/23 08:19:47;;;;;;;5.75;5.18;;;18.00;99.90;;;;;;6215703;23;20005;-88
2023/07/23 08:22:13;;;;;;;6.63;5.93;;;18.00;99.90;;;;;;6214772;23;20472;-87
2023/07/23 08:24:39;;;;;;;5.82;5.07;;;18.10;99.90;;;;;;6212125;23;20023;-88
2023/07/23 08:27:07;;;;;;;6.38;5.25;;;18.10;99.90;;;;;;6213646;23;20036;-87
2023/07/23 08:29:34;;;;;;;7.28;5.32;;;18.20;99.90;;;;;;6213252;23;20004;-90
2023/07/23 08:32:01;;;;;;;6.20;5.60;;;18.20;99.90;;;;;;6214304;23;20007;-88
2023/07/23 08:34:27;;;;;;;7.22;5.40;;;18.20;99.90;;;;;;6213761;23;20072;-88
2023/07/23 08:36:54;;;;;;;7.78;6.38;;;18.40;99.90;;;;;;6214417;23;20008;-89
2023/07/23 08:39:21;;;;;;;7.32;6.25;;;18.40;99.90;;;;;;6214119;23;20004;-90
2023/07/23 08:42:08;;;;;;;6.93;6.05;;;18.40;99.90;;;;;;6213480;23;20008;-88
2023/07/23 08:45:02;;;;;;;7.25;6.55;;;18.40;99.90;;;;;;6213282;23;19996;-89
2023/07/23 08:47:29;;;;;;;;;;;18.40;99.90;;;;;;6093129;23;20391;-88
2023/07/23 08:49:55;;;;;;;7.28;5.90;;;18.30;99.90;;;;;;6093234;23;19908;-89
2023/07/23 08:52:22;;;;;;;8.30;6.18;;;18.30;99.90;;;;;;6096601;23;20094;-93
2023/07/23 08:54:48;;;;;;;7.88;6.45;;;18.30;99.90;;;;;;6095306;23;20010;-90
2023/07/23 08:57:13;;;;;;;7.50;6.35;;;18.30;99.90;;;;;;6092841;23;20036;-84
2023/07/23 08:59:40;;;;;;;6.93;5.85;;;18.30;99.90;;;;;;6091329;23;20012;-84
2023/07/23 09:02:09;;;;;;;8.00;5.60;;;18.40;99.90;;;;;;6093756;23;20011;-95
2023/07/23 09:04:35;;;;;;;8.15;5.25;;;18.40;99.90;;;;;;6093765;23;20018;-87
2023/07/23 09:07:01;;;;;;;10.20;6.25;;;18.40;99.90;;;;;;6092018;23;20013;-88
2023/07/23 09:09:26;;;;;;;8.93;5.90;;;18.40;99.90;;;;;;6092735;23;20006;-88
2023/07/23 09:11:52;;;;;;;5.75;5.15;;;18.40;99.90;;;;;;6092091;23;20038;-89
2023/07/23 09:14:18;;;;;;;6.60;5.60;;;18.50;99.90;;;;;;6105149;23;20014;-89
2023/07/23 09:16:49;;;;;;;8.85;6.00;;;18.60;99.90;;;;;;6098707;23;20037;-87
2023/07/23 09:19:26;;;;;;;6.97;5.45;;;18.60;99.90;;;;;;6098437;23;20006;-86
2023/07/23 09:21:56;;;;;;;5.85;4.80;;;18.60;99.90;;;;;;6101029;23;20015;-88
2023/07/23 09:24:22;;;;;;;7.00;4.50;;;18.60;99.90;;;;;;6154256;23;20047;-87
2023/07/23 09:26:47;;;;;;;5.88;3.97;;;18.70;99.90;;;;;;6212234;23;20012;-89
2023/07/23 09:29:13;;;;;;;6.18;4.68;;;18.70;99.90;;;;;;6212870;23;20008;-88
2023/07/23 09:31:43;;;;;;;4.70;4.20;;;18.70;99.90;;;;;;6212851;23;20001;-83
2023/07/23 09:34:09;;;;;;;4.63;3.38;;;18.80;99.90;;;;;;6210141;23;20005;-84
2023/07/23 09:36:35;;;;;;;4.95;3.80;;;18.80;99.90;;;;;;6212308;23;20039;-85
2023/07/23 09:39:06;;;;;;;5.50;4.25;;;18.90;99.90;;;;;;6212050;23;20035;-84
2023/07/23 09:41:34;;;;;;;7.22;4.28;;;18.90;99.90;;;;;;6211285;23;20001;-85
2023/07/23 09:44:10;;;;;;;4.68;3.67;;;18.90;99.90;;;;;;6211540;23;20079;-86
2023/07/23 09:46:38;;;;;;;4.65;4.20;;;18.90;99.90;;;;;;6211567;23;20008;-87
2023/07/23 09:49:04;;;;;;;4.63;3.58;;;18.90;99.90;;;;;;6235724;23;20005;-86
2023/07/23 09:51:33;;;;;;;5.15;3.15;;;19.00;99.90;;;;;;6212463;23;20381;-86
2023/07/23 09:54:03;;;;;;;4.45;3.45;;;19.00;99.90;;;;;;6211593;23;20011;-85
2023/07/23 09:56:29;;;;;;;5.28;3.42;;;19.00;99.90;;;;;;6210950;23;20079;-86
2023/07/23 09:58:57;;;;;;;4.03;3.38;;;19.10;99.90;;;;;;6211320;23;20032;-85
2023/07/23 10:01:23;;;;;;;4.35;3.95;;;19.10;99.90;;;;;;6211493;23;20295;-87
2023/07/23 10:03:49;;;;;;;4.30;3.08;;;19.00;99.90;;;;;;6211926;23;20097;-87
2023/07/23 10:06:20;;;;;;;3.42;3.00;;;19.00;99.90;;;;;;6212040;23;20008;-87
2023/07/23 10:08:47;;;;;;;3.58;3.22;;;19.00;99.90;;;;;;6212046;23;20380;-87
2023/07/23 10:11:14;;;;;;;3.92;3.30;;;19.00;99.90;;;;;;6210991;23;20027;-85
2023/07/23 10:13:42;;;;;;;4.13;3.20;;;19.10;99.90;;;;;;6211640;23;20031;-78
2023/07/23 10:16:14;;;;;;;4.13;2.88;;;19.20;99.90;;;;;;6210401;23;20001;-77
2023/07/23 10:18:41;;;;;;;3.08;2.75;;;19.30;99.90;;;;;;6211687;23;20105;-77
2023/07/23 10:21:08;;;;;;;4.13;3.03;;;19.30;99.90;;;;;;6211577;23;20058;-81
2023/07/23 10:23:36;;;;;;;2.53;2.33;;;19.40;99.90;;;;;;6211917;23;19997;-80
2023/07/23 10:26:20;;;;;;;3.05;2.30;;;19.40;99.90;;;;;;6210783;23;20063;-80
2023/07/23 10:28:50;;;;;;;3.38;2.28;;;19.50;99.90;;;;;;6211574;23;20027;-81
2023/07/23 10:31:25;;;;;;;2.60;2.40;;;19.50;99.90;;;;;;6212040;23;20000;-81
2023/07/23 10:33:51;;;;;;;2.67;1.70;;;19.50;99.90;;;;;;6211261;23;20001;-81
2023/07/23 10:36:19;;;;;;;2.08;1.38;;;19.50;99.90;;;;;;6211616;23;20076;-81
2023/07/23 10:38:44;;;;;;;2.95;1.95;;;19.50;99.90;;;;;;6210795;23;20000;-81
2023/07/23 10:41:10;;;;;;;2.10;1.80;;;19.50;99.90;;;;;;6210802;23;20012;-81
2023/07/23 10:43:38;;;;;;;2.25;1.40;;;19.40;99.90;;;;;;6211202;23;20338;-81
2023/07/23 10:46:04;;;;;;;2.45;1.73;;;19.30;99.90;;;;;;6211507;23;20814;-80
2023/07/23 10:48:38;;;;;;;2.80;1.83;;;19.30;99.90;;;;;;6211759;23;20074;-81
2023/07/23 10:51:07;;;;;;;2.05;1.70;;;19.30;99.90;;;;;;6211193;23;20020;-81
2023/07/23 10:53:36;;;;;;;2.47;1.70;;;19.20;99.90;;;;;;6210734;23;20450;-80
2023/07/23 10:56:02;;;;;;;2.80;1.88;;;19.20;99.90;;;;;;6211280;23;20009;-80
2023/07/23 10:58:28;;;;;;;2.88;1.90;;;19.20;99.90;;;;;;6211230;23;20004;-81
2023/07/23 11:00:58;;;;;;;1.83;1.50;;;19.20;99.90;;;;;;6211517;23;20031;-82
2023/07/23 11:03:25;;;;;;;2.45;1.98;;;19.10;99.90;;;;;;6211178;23;20010;-81
2023/07/23 11:05:52;;;;;;;2.45;1.90;;;19.10;99.90;;;;;;6211369;23;20001;-80
2023/07/23 11:08:20;;;;;;;2.30;2.10;;;19.10;99.90;;;;;;6210706;23;19997;-80
2023/07/23 11:10:47;;;;;;;2.60;2.17;;;19.10;99.90;;;;;;6211573;23;20008;-81
2023/07/23 11:13:14;;;;;;;3.33;2.67;;;19.10;99.90;;;;;;6212789;23;20027;-78
2023/07/23 11:15:45;;;;;;;3.85;2.45;;;19.00;99.90;;;;;;6213248;23;20001;-81
2023/07/23 11:18:11;;;;;;;2.83;2.30;;;19.10;99.90;;;;;;6213312;23;20027;-80
2023/07/23 11:20:36;;;;;;;3.80;2.92;;;19.10;99.90;;;;;;6213034;23;20000;-84
2023/07/23 11:23:05;;;;;;;2.47;2.17;;;19.10;99.90;;;;;;6212620;23;20054;-85
2023/07/23 11:25:31;;;;;;;3.28;2.85;;;19.10;99.90;;;;;;6213650;23;20000;-81
2023/07/23 11:27:57;;;;;;;3.50;2.97;;;19.20;99.90;;;;;;6212863;23;20027;-81
2023/07/23 11:30:22;;;;;;;2.90;2.40;;;19.20;99.90;;;;;;6213145;23;20705;-81
2023/07/23 11:32:48;;;;;;;5.18;3.55;;;19.20;99.90;;;;;;6213299;23;20008;-77
2023/07/23 11:35:15;;;;;;;6.63;5.45;;;19.30;99.90;;;;;;6212985;23;20000;-77
2023/07/23 11:37:50;;;;;;;6.75;5.72;;;19.40;99.90;;;;;;6212393;23;20465;-77
2023/07/23 11:40:25;;;;;;;5.80;4.80;;;19.50;99.90;;;;;;6212990;23;20023;-78
2023/07/23 11:42:54;;;;;;;6.35;5.75;;;19.70;99.90;;;;;;6212520;23;20039;-77
2023/07/23 11:45:21;;;;;;;5.00;4.50;;;19.90;99.90;;;;;;6185935;23;20000;-77
2023/07/23 11:47:53;;;;;;;5.35;4.72;;;20.10;99.90;;;;;;6212313;23;20031;-78
2023/07/23 11:50:24;;;;;;;5.60;4.70;;;20.30;99.90;;;;;;6212440;23;20087;-78
2023/07/23 11:52:51;;;;;;;4.47;4.07;;;20.30;99.90;;;;;;6211940;23;20013;-77
2023/07/23 11:55:24;;;;;;;5.90;4.57;;;20.40;99.90;;;;;;6212476;23;20035;-77
2023/07/23 11:58:00;;;;;;;4.97;4.53;;;20.60;99.90;;;;;;6211498;23;20007;-78
2023/07/23 12:00:32;;;;;;;5.15;4.65;;;20.80;99.90;;;;;;6185846;23;20019;-77
2023/07/23 12:02:59;;;;;;;5.25;4.75;;;21.00;99.90;;;;;;6186139;23;20418;-77
2023/07/23 12:05:25;;;;;;;4.72;4.30;;;21.10;99.90;;;;;;6211991;23;20605;-77
2023/07/23 12:07:52;;;;;;;5.82;5.18;;;21.20;99.90;;;;;;6185724;23;20130;-77
2023/07/23 12:10:18;;;;;;;4.95;4.32;;;21.20;99.90;;;;;;6212120;23;20123;-77
2023/07/23 12:12:47;;;;;;;4.53;4.13;;;21.20;99.90;;;;;;6212486;23;20391;-77
2023/07/23 12:15:17;;;;;;;4.80;4.40;;;21.30;99.90;;;;;;6212313;23;20004;-77
2023/07/23 12:17:44;;;;;;;4.70;4.30;;;21.20;99.90;;;;;;6212624;23;20001;-77
2023/07/23 12:20:15;;;;;;;5.10;4.45;;;21.30;99.90;;;;;;6211892;23;19996;-77
2023/07/23 12:22:51;;;;;;;5.18;4.32;;;21.40;99.90;;;;;;6212495;23;20001;-77
2023/07/23 12:25:17;;;;;;;4.78;4.38;;;21.40;99.90;;;;;;6185027;23;20000;-77
2023/07/23 12:27:43;;;;;;;5.88;5.28;;;21.40;99.90;;;;;;6211877;23;20016;-77
2023/07/23 12:30:08;;;;;;;4.13;3.80;;;21.40;99.90;;;;;;6185694;23;20070;-77
2023/07/23 12:32:34;;;;;;;4.35;3.95;;;21.40;99.90;;;;;;6212607;23;19996;-77
2023/07/23 12:35:00;;;;;;;5.53;5.03;;;21.40;99.90;;;;;;6184891;23;20164;-77
2023/07/23 12:37:25;;;;;;;5.07;4.57;;;21.50;99.90;;;;;;6212402;23;20319;-78
2023/07/23 12:39:54;;;;;;;4.47;4.07;;;21.60;99.90;;;;;;6211594;23;20001;-78
2023/07/23 12:42:20;;;;;;;5.15;4.63;;;21.70;99.90;;;;;;6185234;23;20087;-78